PWSweather.com
Personal Weather Stations
Station Observations
CARNOUSTIE
Pambride, CarnoustieGB DD7 6DY

PambrideCarnoustieGB DD7 6DY

Lat: 56.50889, Lon: -2.7051

Elevation: 105

Station Type: Oregon Scientific WMR200

www.carnoustieweather.co.uk

High Low Average
Temperature 65.1°F18.4°C 39.2°F4.0°C 48.7°F9.3°C
Dew Point 48.1°F8.9°C 30.3°F-0.9°C 38.4°F3.6°C
Winds 9.2 mph 14.8 kmh Calm Calm 3.0 mph WSW4.8 kmh WSW
Wind Gusts 11.5 mph18.5 kmh -- 4.0 mph6.4 kmh
Humidity 82% 40% 68%
Pressure 29.91 in1012.9 mb 29.47 in998.0 mb -
Precipitation 0.00 in0.0 mm - -
Hour Temp Dew Point Humidity Winds Wind Gusts Pressure Precip Precip Rate Daily Precip Total
12:00 AM 52.0°F11.1°C 46.0°F7.8°C 80% 4.6 mph WSW7.4 kmh WSW 6.9 mph11.1 kmh 29.47 in998.0 mb - 0.00 in0.0 mm 0.00 in0.0 mm
12:10 AM 51.6°F10.9°C 45.6°F7.6°C 80% 4.6 mph S7.4 kmh S 9.2 mph14.8 kmh 29.47 in998.0 mb - 0.00 in0.0 mm 0.00 in0.0 mm
12:15 AM 51.3°F10.7°C 45.7°F7.6°C 81% 4.6 mph SW7.4 kmh SW 4.6 mph7.4 kmh 29.47 in998.0 mb - 0.00 in0.0 mm 0.00 in0.0 mm
12:20 AM 51.3°F10.7°C 45.6°F7.6°C 81% 4.6 mph SW7.4 kmh SW 6.9 mph11.1 kmh 29.47 in998.0 mb - 0.00 in0.0 mm 0.00 in0.0 mm
12:25 AM 51.1°F10.6°C 45.5°F7.5°C 81% 4.6 mph WSW7.4 kmh WSW 5.8 mph9.3 kmh 29.50 in999.0 mb - 0.00 in0.0 mm 0.00 in0.0 mm
12:30 AM 51.1°F10.6°C 45.5°F7.5°C 81% 4.6 mph SW7.4 kmh SW 4.6 mph7.4 kmh 29.50 in999.0 mb - 0.00 in0.0 mm 0.00 in0.0 mm
12:35 AM 51.1°F10.6°C 45.5°F7.5°C 81% 3.5 mph SW5.6 kmh SW 5.8 mph9.3 kmh 29.50 in999.0 mb - 0.00 in0.0 mm 0.00 in0.0 mm
12:40 AM 50.9°F10.5°C 45.3°F7.4°C 81% 3.5 mph SW5.6 kmh SW 3.5 mph5.6 kmh 29.50 in999.0 mb - 0.00 in0.0 mm 0.00 in0.0 mm
12:45 AM 50.9°F10.5°C 45.3°F7.4°C 81% 2.3 mph SW3.7 kmh SW 4.6 mph7.4 kmh 29.50 in999.0 mb - 0.00 in0.0 mm 0.00 in0.0 mm
12:50 AM 51.1°F10.6°C 45.8°F7.7°C 82% 3.5 mph WSW5.6 kmh WSW 8.1 mph13.0 kmh 29.50 in999.0 mb - 0.00 in0.0 mm 0.00 in0.0 mm
12:55 AM 51.2°F10.7°C 45.9°F7.7°C 82% 4.6 mph SW7.4 kmh SW 9.2 mph14.8 kmh 29.50 in999.0 mb - 0.00 in0.0 mm 0.00 in0.0 mm
01:00 AM 51.3°F10.7°C 46.0°F7.8°C 82% 8.1 mph WSW13.0 kmh WSW 9.2 mph14.8 kmh 29.50 in999.0 mb - 0.00 in0.0 mm 0.00 in0.0 mm
01:10 AM 51.3°F10.7°C 46.0°F7.8°C 82% 5.8 mph W9.3 kmh W 6.9 mph11.1 kmh 29.50 in999.0 mb - 0.00 in0.0 mm 0.00 in0.0 mm
01:15 AM 51.3°F10.7°C 45.6°F7.6°C 81% 6.9 mph W11.1 kmh W 10.4 mph16.7 kmh 29.50 in999.0 mb - 0.00 in0.0 mm 0.00 in0.0 mm
01:20 AM 51.3°F10.7°C 45.6°F7.6°C 81% 6.9 mph WSW11.1 kmh WSW 8.1 mph13.0 kmh 29.50 in999.0 mb - 0.00 in0.0 mm 0.00 in0.0 mm
01:25 AM 51.3°F10.7°C 45.6°F7.6°C 81% 3.5 mph SW5.6 kmh SW 5.8 mph9.3 kmh 29.53 in1000.0 mb - 0.00 in0.0 mm 0.00 in0.0 mm
01:30 AM 51.1°F10.6°C 45.1°F7.3°C 80% 4.6 mph WSW7.4 kmh WSW 6.9 mph11.1 kmh 29.53 in1000.0 mb - 0.00 in0.0 mm 0.00 in0.0 mm
01:35 AM 50.7°F10.4°C 44.8°F7.1°C 80% 5.8 mph WSW9.3 kmh WSW 5.8 mph9.3 kmh 29.53 in1000.0 mb - 0.00 in0.0 mm 0.00 in0.0 mm
01:40 AM 50.7°F10.4°C 44.8°F7.1°C 80% 5.8 mph WSW9.3 kmh WSW 8.1 mph13.0 kmh 29.50 in999.0 mb - 0.00 in0.0 mm 0.00 in0.0 mm
01:45 AM 50.5°F10.3°C 44.6°F7.0°C 80% 4.6 mph WSW7.4 kmh WSW 5.8 mph9.3 kmh 29.50 in999.0 mb - 0.00 in0.0 mm 0.00 in0.0 mm
01:50 AM 50.5°F10.3°C 44.6°F7.0°C 80% 5.8 mph W9.3 kmh W 8.1 mph13.0 kmh 29.50 in999.0 mb - 0.00 in0.0 mm 0.00 in0.0 mm
01:55 AM 50.5°F10.3°C 44.6°F7.0°C 80% 6.9 mph WSW11.1 kmh WSW 9.2 mph14.8 kmh 29.53 in1000.0 mb - 0.00 in0.0 mm 0.00 in0.0 mm
02:00 AM 50.5°F10.3°C 44.6°F7.0°C 80% 8.1 mph WSW13.0 kmh WSW 8.1 mph13.0 kmh 29.53 in1000.0 mb - 0.00 in0.0 mm 0.00 in0.0 mm
02:10 AM 50.5°F10.3°C 44.6°F7.0°C 80% 6.9 mph W11.1 kmh W 8.1 mph13.0 kmh 29.56 in1001.0 mb - 0.00 in0.0 mm 0.00 in0.0 mm
02:15 AM 50.5°F10.3°C 44.6°F7.0°C 80% 6.9 mph W11.1 kmh W 9.2 mph14.8 kmh 29.56 in1001.0 mb - 0.00 in0.0 mm 0.00 in0.0 mm
02:20 AM 50.5°F10.3°C 44.6°F7.0°C 80% 5.8 mph W9.3 kmh W 9.2 mph14.8 kmh 29.56 in1001.0 mb - 0.00 in0.0 mm 0.00 in0.0 mm
02:25 AM 50.4°F10.2°C 44.4°F6.9°C 80% 5.8 mph W9.3 kmh W 6.9 mph11.1 kmh 29.56 in1001.0 mb - 0.00 in0.0 mm 0.00 in0.0 mm
02:30 AM 50.2°F10.1°C 43.9°F6.6°C 79% 6.9 mph W11.1 kmh W 10.4 mph16.7 kmh 29.56 in1001.0 mb - 0.00 in0.0 mm 0.00 in0.0 mm
02:35 AM 50.2°F10.1°C 43.6°F6.4°C 78% 8.1 mph W13.0 kmh W 10.4 mph16.7 kmh 29.56 in1001.0 mb - 0.00 in0.0 mm 0.00 in0.0 mm
02:40 AM 49.8°F9.9°C 43.2°F6.2°C 78% 5.8 mph WSW9.3 kmh WSW 8.1 mph13.0 kmh 29.56 in1001.0 mb - 0.00 in0.0 mm 0.00 in0.0 mm
02:45 AM 49.7°F9.8°C 43.1°F6.2°C 78% 6.9 mph WSW11.1 kmh WSW 10.4 mph16.7 kmh 29.56 in1001.0 mb - 0.00 in0.0 mm 0.00 in0.0 mm
02:50 AM 49.6°F9.8°C 42.7°F5.9°C 77% 5.8 mph W9.3 kmh W 6.9 mph11.1 kmh 29.56 in1001.0 mb - 0.00 in0.0 mm 0.00 in0.0 mm
02:55 AM 49.5°F9.7°C 42.5°F5.8°C 77% 6.9 mph WSW11.1 kmh WSW 9.2 mph14.8 kmh 29.56 in1001.0 mb - 0.00 in0.0 mm 0.00 in0.0 mm
03:00 AM 49.3°F9.6°C 42.4°F5.8°C 77% 5.8 mph W9.3 kmh W 6.9 mph11.1 kmh 29.56 in1001.0 mb - 0.00 in0.0 mm 0.00 in0.0 mm
03:10 AM 49.3°F9.6°C 42.4°F5.8°C 77% 6.9 mph WSW11.1 kmh WSW 6.9 mph11.1 kmh 29.59 in1002.0 mb - 0.00 in0.0 mm 0.00 in0.0 mm
03:15 AM 49.3°F9.6°C 42.4°F5.8°C 77% 5.8 mph NW9.3 kmh NW 8.1 mph13.0 kmh 29.59 in1002.0 mb - 0.00 in0.0 mm 0.00 in0.0 mm
03:20 AM 49.3°F9.6°C 42.4°F5.8°C 77% 5.8 mph W9.3 kmh W 6.9 mph11.1 kmh 29.59 in1002.0 mb - 0.00 in0.0 mm 0.00 in0.0 mm
03:25 AM 49.3°F9.6°C 42.4°F5.8°C 77% 4.6 mph WSW7.4 kmh WSW 4.6 mph7.4 kmh 29.59 in1002.0 mb - 0.00 in0.0 mm 0.00 in0.0 mm
03:30 AM 49.3°F9.6°C 42.4°F5.8°C 77% 4.6 mph WNW7.4 kmh WNW 5.8 mph9.3 kmh 29.59 in1002.0 mb - 0.00 in0.0 mm 0.00 in0.0 mm
03:35 AM 49.1°F9.5°C 42.2°F5.7°C 77% 3.5 mph WNW5.6 kmh WNW 5.8 mph9.3 kmh 29.59 in1002.0 mb - 0.00 in0.0 mm 0.00 in0.0 mm
03:40 AM 48.9°F9.4°C 42.0°F5.6°C 77% 4.6 mph W7.4 kmh W 5.8 mph9.3 kmh 29.62 in1003.0 mb - 0.00 in0.0 mm 0.00 in0.0 mm
03:45 AM 48.9°F9.4°C 42.0°F5.6°C 77% 4.6 mph W7.4 kmh W 5.8 mph9.3 kmh 29.62 in1003.0 mb - 0.00 in0.0 mm 0.00 in0.0 mm
03:50 AM 48.9°F9.4°C 42.0°F5.6°C 77% 5.8 mph WSW9.3 kmh WSW 8.1 mph13.0 kmh 29.62 in1003.0 mb - 0.00 in0.0 mm 0.00 in0.0 mm
03:55 AM 48.9°F9.4°C 42.0°F5.6°C 77% 4.6 mph W7.4 kmh W 5.8 mph9.3 kmh 29.62 in1003.0 mb - 0.00 in0.0 mm 0.00 in0.0 mm
04:00 AM 48.9°F9.4°C 42.0°F5.6°C 77% 4.6 mph W7.4 kmh W 6.9 mph11.1 kmh 29.62 in1003.0 mb - 0.00 in0.0 mm 0.00 in0.0 mm
04:10 AM 48.7°F9.3°C 41.8°F5.4°C 77% 8.1 mph W13.0 kmh W 11.5 mph18.5 kmh 29.62 in1003.0 mb - 0.00 in0.0 mm 0.00 in0.0 mm
04:15 AM 48.7°F9.3°C 41.8°F5.4°C 77% 8.1 mph W13.0 kmh W 11.5 mph18.5 kmh 29.62 in1003.0 mb - 0.00 in0.0 mm 0.00 in0.0 mm
04:20 AM 48.7°F9.3°C 41.8°F5.4°C 77% 6.9 mph W11.1 kmh W 8.1 mph13.0 kmh 29.62 in1003.0 mb - 0.00 in0.0 mm 0.00 in0.0 mm
04:25 AM 48.6°F9.2°C 41.7°F5.4°C 77% 6.9 mph WSW11.1 kmh WSW 10.4 mph16.7 kmh 29.62 in1003.0 mb - 0.00 in0.0 mm 0.00 in0.0 mm
04:30 AM 48.6°F9.2°C 41.7°F5.4°C 77% 5.8 mph W9.3 kmh W 8.1 mph13.0 kmh 29.62 in1003.0 mb - 0.00 in0.0 mm 0.00 in0.0 mm
04:35 AM 48.4°F9.1°C 41.5°F5.3°C 77% 6.9 mph W11.1 kmh W 9.2 mph14.8 kmh 29.62 in1003.0 mb - 0.00 in0.0 mm 0.00 in0.0 mm
04:40 AM 48.4°F9.1°C 41.5°F5.3°C 77% 6.9 mph W11.1 kmh W 9.2 mph14.8 kmh 29.62 in1003.0 mb - 0.00 in0.0 mm 0.00 in0.0 mm
04:45 AM 48.4°F9.1°C 41.5°F5.3°C 77% 5.8 mph W9.3 kmh W 9.2 mph14.8 kmh 29.62 in1003.0 mb - 0.00 in0.0 mm 0.00 in0.0 mm
04:50 AM 48.4°F9.1°C 41.2°F5.1°C 76% 5.8 mph WSW9.3 kmh WSW 8.1 mph13.0 kmh 29.62 in1003.0 mb - 0.00 in0.0 mm 0.00 in0.0 mm
04:55 AM 48.4°F9.1°C 41.2°F5.1°C 76% 6.9 mph W11.1 kmh W 9.2 mph14.8 kmh 29.65 in1004.1 mb - 0.00 in0.0 mm 0.00 in0.0 mm
05:00 AM 48.4°F9.1°C 41.2°F5.1°C 76% 9.2 mph W14.8 kmh W 10.4 mph16.7 kmh 29.65 in1004.1 mb - 0.00 in0.0 mm 0.00 in0.0 mm
05:10 AM 48.2°F9.0°C 41.0°F5.0°C 76% 8.1 mph WSW13.0 kmh WSW 10.4 mph16.7 kmh 29.65 in1004.1 mb - 0.00 in0.0 mm 0.00 in0.0 mm
05:15 AM 48.2°F9.0°C 40.6°F4.8°C 75% 6.9 mph W11.1 kmh W 8.1 mph13.0 kmh 29.65 in1004.1 mb - 0.00 in0.0 mm 0.00 in0.0 mm
05:20 AM 48.0°F8.9°C 40.8°F4.9°C 76% 6.9 mph W11.1 kmh W 8.1 mph13.0 kmh 29.65 in1004.1 mb - 0.00 in0.0 mm 0.00 in0.0 mm
05:25 AM 47.8°F8.8°C 40.6°F4.8°C 76% 6.9 mph WSW11.1 kmh WSW 9.2 mph14.8 kmh 29.65 in1004.1 mb - 0.00 in0.0 mm 0.00 in0.0 mm
05:30 AM 47.8°F8.8°C 40.2°F4.6°C 75% 6.9 mph W11.1 kmh W 9.2 mph14.8 kmh 29.65 in1004.1 mb - 0.00 in0.0 mm 0.00 in0.0 mm
05:35 AM 47.7°F8.7°C 40.1°F4.5°C 75% 6.9 mph WNW11.1 kmh WNW 9.2 mph14.8 kmh 29.65 in1004.1 mb - 0.00 in0.0 mm 0.00 in0.0 mm
05:40 AM 47.5°F8.6°C 39.9°F4.4°C 75% 8.1 mph W13.0 kmh W 9.2 mph14.8 kmh 29.68 in1005.1 mb - 0.00 in0.0 mm 0.00 in0.0 mm
05:45 AM 47.5°F8.6°C 39.9°F4.4°C 75% 6.9 mph WSW11.1 kmh WSW 8.1 mph13.0 kmh 29.68 in1005.1 mb - 0.00 in0.0 mm 0.00 in0.0 mm
05:50 AM 47.3°F8.5°C 39.8°F4.3°C 75% 6.9 mph W11.1 kmh W 9.2 mph14.8 kmh 29.68 in1005.1 mb - 0.00 in0.0 mm 0.00 in0.0 mm
05:55 AM 47.3°F8.5°C 39.8°F4.3°C 75% 6.9 mph W11.1 kmh W 8.1 mph13.0 kmh 29.68 in1005.1 mb - 0.00 in0.0 mm 0.00 in0.0 mm
06:00 AM 47.3°F8.5°C 39.8°F4.3°C 75% 6.9 mph W11.1 kmh W 8.1 mph13.0 kmh 29.68 in1005.1 mb - 0.00 in0.0 mm 0.00 in0.0 mm
06:10 AM 47.1°F8.4°C 39.6°F4.2°C 75% 4.6 mph W7.4 kmh W 6.9 mph11.1 kmh 29.65 in1004.1 mb - 0.00 in0.0 mm 0.00 in0.0 mm
06:15 AM 47.1°F8.4°C 39.6°F4.2°C 75% 6.9 mph W11.1 kmh W 8.1 mph13.0 kmh 29.65 in1004.1 mb - 0.00 in0.0 mm 0.00 in0.0 mm
06:20 AM 47.1°F8.4°C 39.6°F4.2°C 75% 6.9 mph W11.1 kmh W 8.1 mph13.0 kmh 29.65 in1004.1 mb - 0.00 in0.0 mm 0.00 in0.0 mm
06:25 AM 46.9°F8.3°C 39.4°F4.1°C 75% 5.8 mph W9.3 kmh W 6.9 mph11.1 kmh 29.65 in1004.1 mb - 0.00 in0.0 mm 0.00 in0.0 mm
06:30 AM 46.8°F8.2°C 39.3°F4.1°C 75% 5.8 mph W9.3 kmh W 5.8 mph9.3 kmh 29.65 in1004.1 mb - 0.00 in0.0 mm 0.00 in0.0 mm
06:35 AM 46.8°F8.2°C 39.3°F4.1°C 75% 5.8 mph WNW9.3 kmh WNW 6.9 mph11.1 kmh 29.65 in1004.1 mb - 0.00 in0.0 mm 0.00 in0.0 mm
06:40 AM 46.6°F8.1°C 39.1°F3.9°C 75% 5.8 mph W9.3 kmh W 6.9 mph11.1 kmh 29.68 in1005.1 mb - 0.00 in0.0 mm 0.00 in0.0 mm
06:45 AM 46.6°F8.1°C 39.1°F3.9°C 75% 5.8 mph W9.3 kmh W 6.9 mph11.1 kmh 29.68 in1005.1 mb - 0.00 in0.0 mm 0.00 in0.0 mm
06:50 AM 46.6°F8.1°C 39.1°F3.9°C 75% 5.8 mph W9.3 kmh W 6.9 mph11.1 kmh 29.68 in1005.1 mb - 0.00 in0.0 mm 0.00 in0.0 mm
06:55 AM 46.8°F8.2°C 39.3°F4.1°C 75% 5.8 mph W9.3 kmh W 6.9 mph11.1 kmh 29.68 in1005.1 mb - 0.00 in0.0 mm 0.00 in0.0 mm
07:00 AM 46.9°F8.3°C 39.4°F4.1°C 75% 5.8 mph WNW9.3 kmh WNW 5.8 mph9.3 kmh 29.68 in1005.1 mb - 0.00 in0.0 mm 0.00 in0.0 mm
07:10 AM 47.1°F8.4°C 38.9°F3.8°C 73% 6.9 mph W11.1 kmh W 8.1 mph13.0 kmh 29.68 in1005.1 mb - 0.00 in0.0 mm 0.00 in0.0 mm
07:15 AM 47.1°F8.4°C 38.6°F3.7°C 72% 6.9 mph W11.1 kmh W 8.1 mph13.0 kmh 29.68 in1005.1 mb - 0.00 in0.0 mm 0.00 in0.0 mm
07:20 AM 46.9°F8.3°C 38.4°F3.6°C 72% 5.8 mph W9.3 kmh W 6.9 mph11.1 kmh 29.68 in1005.1 mb - 0.00 in0.0 mm 0.00 in0.0 mm
07:25 AM 46.9°F8.3°C 38.4°F3.6°C 72% 4.6 mph W7.4 kmh W 4.6 mph7.4 kmh 29.71 in1006.1 mb - 0.00 in0.0 mm 0.00 in0.0 mm
07:30 AM 47.0°F8.3°C 38.4°F3.6°C 72% 3.5 mph W5.6 kmh W 4.6 mph7.4 kmh 29.71 in1006.1 mb - 0.00 in0.0 mm 0.00 in0.0 mm
07:35 AM 47.1°F8.4°C 38.6°F3.7°C 72% 4.6 mph W7.4 kmh W 4.6 mph7.4 kmh 29.71 in1006.1 mb - 0.00 in0.0 mm 0.00 in0.0 mm
07:40 AM 47.1°F8.4°C 38.6°F3.7°C 72% 4.6 mph W7.4 kmh W 4.6 mph7.4 kmh 29.74 in1007.1 mb - 0.00 in0.0 mm 0.00 in0.0 mm
07:45 AM 47.1°F8.4°C 38.6°F3.7°C 72% 4.6 mph W7.4 kmh W 5.8 mph9.3 kmh 29.74 in1007.1 mb - 0.00 in0.0 mm 0.00 in0.0 mm
07:50 AM 47.1°F8.4°C 38.2°F3.4°C 71% 5.8 mph W9.3 kmh W 8.1 mph13.0 kmh 29.74 in1007.1 mb - 0.00 in0.0 mm 0.00 in0.0 mm
07:55 AM 47.3°F8.5°C 38.4°F3.6°C 71% 3.5 mph W5.6 kmh W 3.5 mph5.6 kmh 29.71 in1006.1 mb - 0.00 in0.0 mm 0.00 in0.0 mm
08:00 AM 47.3°F8.5°C 38.4°F3.6°C 71% 3.5 mph WNW5.6 kmh WNW 4.6 mph7.4 kmh 29.71 in1006.1 mb - 0.00 in0.0 mm 0.00 in0.0 mm
08:10 AM 47.3°F8.5°C 38.4°F3.6°C 71% 4.6 mph W7.4 kmh W 6.9 mph11.1 kmh 29.74 in1007.1 mb - 0.00 in0.0 mm 0.00 in0.0 mm
08:15 AM 47.3°F8.5°C 38.0°F3.3°C 70% 8.1 mph W13.0 kmh W 10.4 mph16.7 kmh 29.74 in1007.1 mb - 0.00 in0.0 mm 0.00 in0.0 mm
08:20 AM 47.5°F8.6°C 37.8°F3.2°C 69% 5.8 mph W9.3 kmh W 5.8 mph9.3 kmh 29.74 in1007.1 mb - 0.00 in0.0 mm 0.00 in0.0 mm
08:25 AM 47.5°F8.6°C 37.9°F3.3°C 69% 3.5 mph W5.6 kmh W 4.6 mph7.4 kmh 29.71 in1006.1 mb - 0.00 in0.0 mm 0.00 in0.0 mm
08:30 AM 47.7°F8.7°C 38.4°F3.6°C 70% 2.3 mph WSW3.7 kmh WSW 3.5 mph5.6 kmh 29.71 in1006.1 mb - 0.00 in0.0 mm 0.00 in0.0 mm
08:35 AM 47.7°F8.7°C 38.4°F3.6°C 70% 2.3 mph W3.7 kmh W 3.5 mph5.6 kmh 29.71 in1006.1 mb - 0.00 in0.0 mm 0.00 in0.0 mm
08:40 AM 47.7°F8.7°C 38.4°F3.6°C 70% 3.5 mph W5.6 kmh W 3.5 mph5.6 kmh 29.74 in1007.1 mb - 0.00 in0.0 mm 0.00 in0.0 mm
08:45 AM 47.8°F8.8°C 38.5°F3.6°C 70% 1.2 mph WSW1.9 kmh WSW 2.3 mph3.7 kmh 29.74 in1007.1 mb - 0.00 in0.0 mm 0.00 in0.0 mm
08:50 AM 47.8°F8.8°C 38.9°F3.8°C 71% Calm Calm -- 29.74 in1007.1 mb - 0.00 in0.0 mm 0.00 in0.0 mm
08:55 AM 48.0°F8.9°C 39.1°F3.9°C 71% 1.2 mph ENE1.9 kmh ENE 2.3 mph3.7 kmh 29.74 in1007.1 mb - 0.00 in0.0 mm 0.00 in0.0 mm
09:00 AM 48.4°F9.1°C 39.4°F4.1°C 71% 2.3 mph NE3.7 kmh NE 2.3 mph3.7 kmh 29.74 in1007.1 mb - 0.00 in0.0 mm 0.00 in0.0 mm
09:10 AM 48.6°F9.2°C 39.6°F4.2°C 71% Calm Calm 1.2 mph1.9 kmh 29.74 in1007.1 mb - 0.00 in0.0 mm 0.00 in0.0 mm
09:15 AM 48.5°F9.2°C 39.6°F4.2°C 71% 1.2 mph SSW1.9 kmh SSW 1.2 mph1.9 kmh 29.74 in1007.1 mb - 0.00 in0.0 mm 0.00 in0.0 mm
09:20 AM 48.6°F9.2°C 39.6°F4.2°C 71% 1.2 mph WSW1.9 kmh WSW 2.3 mph3.7 kmh 29.74 in1007.1 mb - 0.00 in0.0 mm 0.00 in0.0 mm
09:25 AM 48.6°F9.2°C 39.6°F4.2°C 71% Calm Calm 1.2 mph1.9 kmh 29.74 in1007.1 mb - 0.00 in0.0 mm 0.00 in0.0 mm
09:30 AM 48.7°F9.3°C 39.8°F4.3°C 71% Calm Calm 1.2 mph1.9 kmh 29.74 in1007.1 mb - 0.00 in0.0 mm 0.00 in0.0 mm
09:35 AM 48.9°F9.4°C 39.9°F4.4°C 71% Calm Calm 1.2 mph1.9 kmh 29.74 in1007.1 mb - 0.00 in0.0 mm 0.00 in0.0 mm
09:40 AM 48.9°F9.4°C 39.9°F4.4°C 71% 1.2 mph WNW1.9 kmh WNW 2.3 mph3.7 kmh 29.74 in1007.1 mb - 0.00 in0.0 mm 0.00 in0.0 mm
09:45 AM 49.3°F9.6°C 40.3°F4.6°C 71% Calm Calm 1.2 mph1.9 kmh 29.74 in1007.1 mb - 0.00 in0.0 mm 0.00 in0.0 mm
09:50 AM 49.4°F9.7°C 40.4°F4.7°C 71% 1.2 mph W1.9 kmh W 2.3 mph3.7 kmh 29.74 in1007.1 mb - 0.00 in0.0 mm 0.00 in0.0 mm
09:55 AM 49.5°F9.7°C 40.4°F4.7°C 71% 2.3 mph W3.7 kmh W 2.3 mph3.7 kmh 29.74 in1007.1 mb - 0.00 in0.0 mm 0.00 in0.0 mm
10:00 AM 49.6°F9.8°C 40.6°F4.8°C 71% 2.3 mph W3.7 kmh W 2.3 mph3.7 kmh 29.74 in1007.1 mb - 0.00 in0.0 mm 0.00 in0.0 mm
10:10 AM 50.0°F10.0°C 40.6°F4.8°C 70% 3.5 mph W5.6 kmh W 3.5 mph5.6 kmh 29.77 in1008.1 mb - 0.00 in0.0 mm 0.00 in0.0 mm
10:15 AM 50.0°F10.0°C 40.6°F4.8°C 70% 2.3 mph W3.7 kmh W 3.5 mph5.6 kmh 29.77 in1008.1 mb - 0.00 in0.0 mm 0.00 in0.0 mm
10:20 AM 50.0°F10.0°C 40.6°F4.8°C 70% Calm Calm -- 29.77 in1008.1 mb - 0.00 in0.0 mm 0.00 in0.0 mm
10:25 AM 49.8°F9.9°C 40.4°F4.7°C 70% 2.3 mph W3.7 kmh W 2.3 mph3.7 kmh 29.77 in1008.1 mb - 0.00 in0.0 mm 0.00 in0.0 mm
10:30 AM 49.8°F9.9°C 40.4°F4.7°C 70% 1.2 mph W1.9 kmh W 2.3 mph3.7 kmh 29.77 in1008.1 mb - 0.00 in0.0 mm 0.00 in0.0 mm
10:35 AM 49.8°F9.9°C 40.4°F4.7°C 70% 2.3 mph WNW3.7 kmh WNW 2.3 mph3.7 kmh 29.77 in1008.1 mb - 0.00 in0.0 mm 0.00 in0.0 mm
10:40 AM 49.8°F9.9°C 40.4°F4.7°C 70% 2.3 mph NW3.7 kmh NW 2.3 mph3.7 kmh 29.74 in1007.1 mb - 0.00 in0.0 mm 0.00 in0.0 mm
10:45 AM 49.8°F9.9°C 40.4°F4.7°C 70% 1.2 mph WNW1.9 kmh WNW 1.2 mph1.9 kmh 29.74 in1007.1 mb - 0.00 in0.0 mm 0.00 in0.0 mm
10:50 AM 49.8°F9.9°C 40.4°F4.7°C 70% Calm Calm -- 29.74 in1007.1 mb - 0.00 in0.0 mm 0.00 in0.0 mm
10:55 AM 49.8°F9.9°C 40.4°F4.7°C 70% 1.2 mph WNW1.9 kmh WNW 2.3 mph3.7 kmh 29.77 in1008.1 mb - 0.00 in0.0 mm 0.00 in0.0 mm
11:00 AM 50.0°F10.0°C 40.2°F4.6°C 69% 1.2 mph WNW1.9 kmh WNW 2.3 mph3.7 kmh 29.77 in1008.1 mb - 0.00 in0.0 mm 0.00 in0.0 mm
11:10 AM 49.8°F9.9°C 40.4°F4.7°C 70% 2.3 mph W3.7 kmh W 2.3 mph3.7 kmh 29.77 in1008.1 mb - 0.00 in0.0 mm 0.00 in0.0 mm
11:15 AM 49.8°F9.9°C 40.4°F4.7°C 70% 1.2 mph W1.9 kmh W 2.3 mph3.7 kmh 29.77 in1008.1 mb - 0.00 in0.0 mm 0.00 in0.0 mm
11:20 AM 49.6°F9.8°C 39.9°F4.4°C 69% Calm Calm -- 29.77 in1008.1 mb - 0.00 in0.0 mm 0.00 in0.0 mm
11:25 AM 49.8°F9.9°C 40.1°F4.5°C 69% Calm Calm -- 29.74 in1007.1 mb - 0.00 in0.0 mm 0.00 in0.0 mm
11:30 AM 49.8°F9.9°C 40.1°F4.5°C 69% 2.3 mph WNW3.7 kmh WNW 2.3 mph3.7 kmh 29.74 in1007.1 mb - 0.00 in0.0 mm 0.00 in0.0 mm
11:35 AM 49.8°F9.9°C 40.1°F4.5°C 69% 2.3 mph WNW3.7 kmh WNW 3.5 mph5.6 kmh 29.74 in1007.1 mb - 0.00 in0.0 mm 0.00 in0.0 mm
11:40 AM 49.8°F9.9°C 40.1°F4.5°C 69% 3.5 mph W5.6 kmh W 4.6 mph7.4 kmh 29.77 in1008.1 mb - 0.00 in0.0 mm 0.00 in0.0 mm
11:45 AM 49.8°F9.9°C 39.7°F4.3°C 68% 2.3 mph W3.7 kmh W 3.5 mph5.6 kmh 29.77 in1008.1 mb - 0.00 in0.0 mm 0.00 in0.0 mm
11:50 AM 50.1°F10.1°C 39.9°F4.4°C 68% 2.3 mph NNW3.7 kmh NNW 3.5 mph5.6 kmh 29.77 in1008.1 mb - 0.00 in0.0 mm 0.00 in0.0 mm
11:55 AM 50.2°F10.1°C 40.0°F4.4°C 68% 2.3 mph WNW3.7 kmh WNW 3.5 mph5.6 kmh 29.77 in1008.1 mb - 0.00 in0.0 mm 0.00 in0.0 mm
12:00 PM 50.2°F10.1°C 39.6°F4.2°C 67% 3.5 mph W5.6 kmh W 4.6 mph7.4 kmh 29.77 in1008.1 mb - 0.00 in0.0 mm 0.00 in0.0 mm
12:10 PM 50.2°F10.1°C 39.3°F4.1°C 66% 3.5 mph W5.6 kmh W 4.6 mph7.4 kmh 29.80 in1009.1 mb - 0.00 in0.0 mm 0.00 in0.0 mm
12:15 PM 50.4°F10.2°C 39.4°F4.1°C 66% 2.3 mph W3.7 kmh W 3.5 mph5.6 kmh 29.80 in1009.1 mb - 0.00 in0.0 mm 0.00 in0.0 mm
12:20 PM 50.4°F10.2°C 39.4°F4.1°C 66% 3.5 mph W5.6 kmh W 4.6 mph7.4 kmh 29.80 in1009.1 mb - 0.00 in0.0 mm 0.00 in0.0 mm
12:25 PM 50.2°F10.1°C 38.9°F3.8°C 65% 2.3 mph W3.7 kmh W 3.5 mph5.6 kmh 29.80 in1009.1 mb - 0.00 in0.0 mm 0.00 in0.0 mm
12:30 PM 50.4°F10.2°C 39.0°F3.9°C 65% 2.3 mph W3.7 kmh W 2.3 mph3.7 kmh 29.80 in1009.1 mb - 0.00 in0.0 mm 0.00 in0.0 mm
12:35 PM 50.5°F10.3°C 39.2°F4.0°C 65% 2.3 mph W3.7 kmh W 2.3 mph3.7 kmh 29.80 in1009.1 mb - 0.00 in0.0 mm 0.00 in0.0 mm
12:40 PM 50.6°F10.3°C 39.3°F4.1°C 65% 2.3 mph W3.7 kmh W 3.5 mph5.6 kmh 29.80 in1009.1 mb - 0.00 in0.0 mm 0.00 in0.0 mm
12:45 PM 50.7°F10.4°C 39.4°F4.1°C 65% 2.3 mph W3.7 kmh W 3.5 mph5.6 kmh 29.80 in1009.1 mb - 0.00 in0.0 mm 0.00 in0.0 mm
12:50 PM 50.7°F10.4°C 39.0°F3.9°C 64% 3.5 mph W5.6 kmh W 5.8 mph9.3 kmh 29.80 in1009.1 mb - 0.00 in0.0 mm 0.00 in0.0 mm
12:55 PM 50.7°F10.4°C 39.0°F3.9°C 64% 4.6 mph WSW7.4 kmh WSW 4.6 mph7.4 kmh 29.80 in1009.1 mb - 0.00 in0.0 mm 0.00 in0.0 mm
01:00 PM 50.9°F10.5°C 39.1°F3.9°C 64% 2.3 mph W3.7 kmh W 3.5 mph5.6 kmh 29.80 in1009.1 mb - 0.00 in0.0 mm 0.00 in0.0 mm
01:10 PM 51.1°F10.6°C 39.3°F4.1°C 64% 2.3 mph WSW3.7 kmh WSW 3.5 mph5.6 kmh 29.80 in1009.1 mb - 0.00 in0.0 mm 0.00 in0.0 mm
01:15 PM 51.1°F10.6°C 39.3°F4.1°C 64% 3.5 mph WSW5.6 kmh WSW 4.6 mph7.4 kmh 29.80 in1009.1 mb - 0.00 in0.0 mm 0.00 in0.0 mm
01:20 PM 51.3°F10.7°C 39.5°F4.2°C 64% 2.3 mph W3.7 kmh W 4.6 mph7.4 kmh 29.80 in1009.1 mb - 0.00 in0.0 mm 0.00 in0.0 mm
01:25 PM 51.6°F10.9°C 39.8°F4.3°C 64% 2.3 mph WSW3.7 kmh WSW 4.6 mph7.4 kmh 29.82 in1009.8 mb - 0.00 in0.0 mm 0.00 in0.0 mm
01:30 PM 51.8°F11.0°C 39.6°F4.2°C 63% 3.5 mph W5.6 kmh W 3.5 mph5.6 kmh 29.82 in1009.8 mb - 0.00 in0.0 mm 0.00 in0.0 mm
01:35 PM 52.7°F11.5°C 40.5°F4.7°C 63% 4.6 mph W7.4 kmh W 5.8 mph9.3 kmh 29.82 in1009.8 mb - 0.00 in0.0 mm 0.00 in0.0 mm
01:40 PM 53.8°F12.1°C 41.1°F5.1°C 62% 3.5 mph SW5.6 kmh SW 3.5 mph5.6 kmh 29.80 in1009.1 mb - 0.00 in0.0 mm 0.00 in0.0 mm
01:45 PM 55.5°F13.1°C 42.2°F5.7°C 61% 2.3 mph WNW3.7 kmh WNW 3.5 mph5.6 kmh 29.80 in1009.1 mb - 0.00 in0.0 mm 0.00 in0.0 mm
01:50 PM 57.1°F13.9°C 43.3°F6.3°C 60% 3.5 mph WNW5.6 kmh WNW 4.6 mph7.4 kmh 29.80 in1009.1 mb - 0.00 in0.0 mm 0.00 in0.0 mm
01:55 PM 58.1°F14.5°C 42.9°F6.1°C 57% 2.3 mph NW3.7 kmh NW 3.5 mph5.6 kmh 29.80 in1009.1 mb - 0.00 in0.0 mm 0.00 in0.0 mm
02:00 PM 59.3°F15.2°C 42.6°F5.9°C 54% 3.5 mph WNW5.6 kmh WNW 4.6 mph7.4 kmh 29.80 in1009.1 mb - 0.00 in0.0 mm 0.00 in0.0 mm
02:10 PM 60.1°F15.6°C 41.9°F5.5°C 51% 3.5 mph W5.6 kmh W 4.6 mph7.4 kmh 29.80 in1009.1 mb - 0.00 in0.0 mm 0.00 in0.0 mm
02:15 PM 59.9°F15.5°C 39.6°F4.2°C 47% 3.5 mph WNW5.6 kmh WNW 4.6 mph7.4 kmh 29.80 in1009.1 mb - 0.00 in0.0 mm 0.00 in0.0 mm
02:20 PM 59.5°F15.3°C 40.9°F4.9°C 50% 5.8 mph WNW9.3 kmh WNW 4.6 mph7.4 kmh 29.80 in1009.1 mb - 0.00 in0.0 mm 0.00 in0.0 mm
02:25 PM 59.8°F15.4°C 40.1°F4.5°C 48% 3.5 mph WSW5.6 kmh WSW 3.5 mph5.6 kmh 29.80 in1009.1 mb - 0.00 in0.0 mm 0.00 in0.0 mm
02:30 PM 60.4°F15.8°C 39.5°F4.2°C 46% 3.5 mph WNW5.6 kmh WNW 4.6 mph7.4 kmh 29.80 in1009.1 mb - 0.00 in0.0 mm 0.00 in0.0 mm
02:35 PM 61.2°F16.2°C 39.1°F3.9°C 44% 3.5 mph W5.6 kmh W 3.5 mph5.6 kmh 29.80 in1009.1 mb - 0.00 in0.0 mm 0.00 in0.0 mm
02:40 PM 61.5°F16.4°C 38.8°F3.8°C 43% 1.2 mph ESE1.9 kmh ESE 1.2 mph1.9 kmh 29.80 in1009.1 mb - 0.00 in0.0 mm 0.00 in0.0 mm
02:45 PM 61.7°F16.5°C 40.7°F4.8°C 46% 2.3 mph NNW3.7 kmh NNW 3.5 mph5.6 kmh 29.80 in1009.1 mb - 0.00 in0.0 mm 0.00 in0.0 mm
02:50 PM 62.5°F16.9°C 44.6°F7.0°C 52% 2.3 mph NW3.7 kmh NW 2.3 mph3.7 kmh 29.80 in1009.1 mb - 0.00 in0.0 mm 0.00 in0.0 mm
02:55 PM 63.0°F17.2°C 38.2°F3.4°C 40% 1.2 mph NE1.9 kmh NE 2.3 mph3.7 kmh 29.80 in1009.1 mb - 0.00 in0.0 mm 0.00 in0.0 mm
03:00 PM 63.4°F17.4°C 42.8°F6.0°C 47% 2.3 mph SE3.7 kmh SE 2.3 mph3.7 kmh 29.80 in1009.1 mb - 0.00 in0.0 mm 0.00 in0.0 mm
03:10 PM 65.1°F18.4°C 47.6°F8.7°C 53% 4.6 mph SE7.4 kmh SE 4.6 mph7.4 kmh 29.80 in1009.1 mb - 0.00 in0.0 mm 0.00 in0.0 mm
03:15 PM 65.1°F18.4°C 48.1°F8.9°C 54% 4.6 mph SE7.4 kmh SE 4.6 mph7.4 kmh 29.80 in1009.1 mb - 0.00 in0.0 mm 0.00 in0.0 mm
03:20 PM 64.9°F18.3°C 43.7°F6.5°C 46% 3.5 mph SE5.6 kmh SE 4.6 mph7.4 kmh 29.80 in1009.1 mb - 0.00 in0.0 mm 0.00 in0.0 mm
03:25 PM 65.1°F18.4°C 43.2°F6.2°C 45% 2.3 mph SE3.7 kmh SE 4.6 mph7.4 kmh 29.80 in1009.1 mb - 0.00 in0.0 mm 0.00 in0.0 mm
03:30 PM 65.0°F18.3°C 43.7°F6.5°C 46% 3.5 mph SE5.6 kmh SE 5.8 mph9.3 kmh 29.80 in1009.1 mb - 0.00 in0.0 mm 0.00 in0.0 mm
03:35 PM 65.1°F18.4°C 44.9°F7.2°C 48% 3.5 mph SE5.6 kmh SE 5.8 mph9.3 kmh 29.80 in1009.1 mb - 0.00 in0.0 mm 0.00 in0.0 mm
03:40 PM 65.0°F18.3°C 42.5°F5.8°C 44% 2.3 mph SE3.7 kmh SE 3.5 mph5.6 kmh 29.80 in1009.1 mb - 0.00 in0.0 mm 0.00 in0.0 mm
03:45 PM 64.8°F18.2°C 43.5°F6.4°C 46% 3.5 mph ESE5.6 kmh ESE 4.6 mph7.4 kmh 29.80 in1009.1 mb - 0.00 in0.0 mm 0.00 in0.0 mm
03:50 PM 64.7°F18.2°C 46.7°F8.2°C 52% 1.2 mph SE1.9 kmh SE 2.3 mph3.7 kmh 29.80 in1009.1 mb - 0.00 in0.0 mm 0.00 in0.0 mm
03:55 PM 64.8°F18.2°C 44.6°F7.0°C 48% 3.5 mph SE5.6 kmh SE 4.6 mph7.4 kmh 29.80 in1009.1 mb - 0.00 in0.0 mm 0.00 in0.0 mm
04:00 PM 64.2°F17.9°C 44.1°F6.7°C 48% 2.3 mph SSE3.7 kmh SSE 4.6 mph7.4 kmh 29.80 in1009.1 mb - 0.00 in0.0 mm 0.00 in0.0 mm
04:10 PM 63.9°F17.7°C 42.7°F5.9°C 46% 3.5 mph SE5.6 kmh SE 4.6 mph7.4 kmh 29.80 in1009.1 mb - 0.00 in0.0 mm 0.00 in0.0 mm
04:15 PM 62.9°F17.2°C 42.3°F5.7°C 47% 2.3 mph SE3.7 kmh SE 4.6 mph7.4 kmh 29.80 in1009.1 mb - 0.00 in0.0 mm 0.00 in0.0 mm
04:20 PM 61.9°F16.6°C 41.9°F5.5°C 48% 2.3 mph SE3.7 kmh SE 3.5 mph5.6 kmh 29.80 in1009.1 mb - 0.00 in0.0 mm 0.00 in0.0 mm
04:25 PM 59.6°F15.3°C 39.9°F4.4°C 48% 3.5 mph SE5.6 kmh SE 3.5 mph5.6 kmh 29.80 in1009.1 mb - 0.00 in0.0 mm 0.00 in0.0 mm
04:30 PM 57.8°F14.3°C 40.3°F4.6°C 52% 3.5 mph SE5.6 kmh SE 4.6 mph7.4 kmh 29.80 in1009.1 mb - 0.00 in0.0 mm 0.00 in0.0 mm
04:35 PM 56.3°F13.5°C 39.8°F4.3°C 54% 2.3 mph SE3.7 kmh SE 3.5 mph5.6 kmh 29.80 in1009.1 mb - 0.00 in0.0 mm 0.00 in0.0 mm
04:40 PM 55.9°F13.3°C 38.5°F3.6°C 52% 2.3 mph SSE3.7 kmh SSE 3.5 mph5.6 kmh 29.80 in1009.1 mb - 0.00 in0.0 mm 0.00 in0.0 mm
04:45 PM 55.9°F13.3°C 46.7°F8.2°C 71% 1.2 mph S1.9 kmh S 1.2 mph1.9 kmh 29.80 in1009.1 mb - 0.00 in0.0 mm 0.00 in0.0 mm
04:50 PM 55.4°F13.0°C 38.0°F3.3°C 52% 1.2 mph SSE1.9 kmh SSE 1.2 mph1.9 kmh 29.80 in1009.1 mb - 0.00 in0.0 mm 0.00 in0.0 mm
04:55 PM 54.2°F12.3°C 37.9°F3.3°C 54% 1.2 mph SSE1.9 kmh SSE 1.2 mph1.9 kmh 29.80 in1009.1 mb - 0.00 in0.0 mm 0.00 in0.0 mm
05:00 PM 53.0°F11.7°C 36.3°F2.4°C 53% 1.2 mph SSE1.9 kmh SSE 1.2 mph1.9 kmh 29.80 in1009.1 mb - 0.00 in0.0 mm 0.00 in0.0 mm
05:10 PM 50.6°F10.3°C 33.6°F0.9°C 52% 1.2 mph SE1.9 kmh SE 2.3 mph3.7 kmh 29.80 in1009.1 mb - 0.00 in0.0 mm 0.00 in0.0 mm
05:15 PM 49.6°F9.8°C 32.2°F0.1°C 51% 1.2 mph SSE1.9 kmh SSE 1.2 mph1.9 kmh 29.80 in1009.1 mb - 0.00 in0.0 mm 0.00 in0.0 mm
05:20 PM 48.7°F9.3°C 31.9°F-0.1°C 52% 1.2 mph SW1.9 kmh SW 2.3 mph3.7 kmh 29.80 in1009.1 mb - 0.00 in0.0 mm 0.00 in0.0 mm
05:25 PM 48.2°F9.0°C 31.9°F-0.1°C 53% 1.2 mph WSW1.9 kmh WSW 1.2 mph1.9 kmh 29.82 in1009.8 mb - 0.00 in0.0 mm 0.00 in0.0 mm
05:30 PM 47.5°F8.6°C 31.6°F-0.2°C 54% 1.2 mph WSW1.9 kmh WSW 2.3 mph3.7 kmh 29.82 in1009.8 mb - 0.00 in0.0 mm 0.00 in0.0 mm
05:35 PM 46.9°F8.3°C 31.6°F-0.2°C 55% 2.3 mph W3.7 kmh W 2.3 mph3.7 kmh 29.82 in1009.8 mb - 0.00 in0.0 mm 0.00 in0.0 mm
05:40 PM 46.6°F8.1°C 31.7°F-0.2°C 56% 2.3 mph WNW3.7 kmh WNW 2.3 mph3.7 kmh 29.82 in1009.8 mb - 0.00 in0.0 mm 0.00 in0.0 mm
05:45 PM 46.2°F7.9°C 31.7°F-0.2°C 57% 1.2 mph WNW1.9 kmh WNW 2.3 mph3.7 kmh 29.82 in1009.8 mb - 0.00 in0.0 mm 0.00 in0.0 mm
05:50 PM 45.6°F7.6°C 31.2°F-0.4°C 57% 2.3 mph W3.7 kmh W 2.3 mph3.7 kmh 29.82 in1009.8 mb - 0.00 in0.0 mm 0.00 in0.0 mm
05:55 PM 45.1°F7.3°C 31.2°F-0.4°C 58% 1.2 mph W1.9 kmh W 2.3 mph3.7 kmh 29.82 in1009.8 mb - 0.00 in0.0 mm 0.00 in0.0 mm
06:00 PM 44.8°F7.1°C 31.3°F-0.4°C 59% 2.3 mph W3.7 kmh W 2.3 mph3.7 kmh 29.82 in1009.8 mb - 0.00 in0.0 mm 0.00 in0.0 mm
06:10 PM 44.1°F6.7°C 31.1°F-0.5°C 60% 1.2 mph W1.9 kmh W 2.3 mph3.7 kmh 29.82 in1009.8 mb - 0.00 in0.0 mm 0.00 in0.0 mm
06:15 PM 43.8°F6.6°C 30.8°F-0.7°C 60% 1.2 mph W1.9 kmh W 1.2 mph1.9 kmh 29.82 in1009.8 mb - 0.00 in0.0 mm 0.00 in0.0 mm
06:20 PM 43.5°F6.4°C 31.0°F-0.6°C 61% 1.2 mph W1.9 kmh W 2.3 mph3.7 kmh 29.82 in1009.8 mb - 0.00 in0.0 mm 0.00 in0.0 mm
06:25 PM 43.3°F6.3°C 30.8°F-0.7°C 61% 1.2 mph W1.9 kmh W 2.3 mph3.7 kmh 29.86 in1011.2 mb - 0.00 in0.0 mm 0.00 in0.0 mm
06:30 PM 43.2°F6.2°C 30.6°F-0.8°C 61% 1.2 mph W1.9 kmh W 2.3 mph3.7 kmh 29.86 in1011.2 mb - 0.00 in0.0 mm 0.00 in0.0 mm
06:35 PM 43.0°F6.1°C 30.8°F-0.7°C 62% 1.2 mph W1.9 kmh W 2.3 mph3.7 kmh 29.86 in1011.2 mb - 0.00 in0.0 mm 0.00 in0.0 mm
06:40 PM 42.8°F6.0°C 30.7°F-0.7°C 62% 1.2 mph W1.9 kmh W 2.3 mph3.7 kmh 29.86 in1011.2 mb - 0.00 in0.0 mm 0.00 in0.0 mm
06:45 PM 42.6°F5.9°C 30.9°F-0.6°C 63% 1.2 mph W1.9 kmh W 1.2 mph1.9 kmh 29.86 in1011.2 mb - 0.00 in0.0 mm 0.00 in0.0 mm
06:50 PM 42.4°F5.8°C 30.7°F-0.7°C 63% Calm Calm -- 29.86 in1011.2 mb - 0.00 in0.0 mm 0.00 in0.0 mm
06:55 PM 42.3°F5.7°C 30.6°F-0.8°C 63% Calm Calm -- 29.86 in1011.2 mb - 0.00 in0.0 mm 0.00 in0.0 mm
07:00 PM 41.9°F5.5°C 30.6°F-0.8°C 64% Calm Calm -- 29.86 in1011.2 mb - 0.00 in0.0 mm 0.00 in0.0 mm
07:10 PM 41.7°F5.4°C 30.8°F-0.7°C 65% 1.2 mph NW1.9 kmh NW 2.3 mph3.7 kmh 29.86 in1011.2 mb - 0.00 in0.0 mm 0.00 in0.0 mm
07:15 PM 41.5°F5.3°C 30.6°F-0.8°C 65% 2.3 mph WNW3.7 kmh WNW 2.3 mph3.7 kmh 29.86 in1011.2 mb - 0.00 in0.0 mm 0.00 in0.0 mm
07:20 PM 41.5°F5.3°C 30.6°F-0.8°C 65% 2.3 mph WNW3.7 kmh WNW 2.3 mph3.7 kmh 29.86 in1011.2 mb - 0.00 in0.0 mm 0.00 in0.0 mm
07:25 PM 41.4°F5.2°C 30.5°F-0.8°C 65% Calm Calm 1.2 mph1.9 kmh 29.82 in1009.8 mb - 0.00 in0.0 mm 0.00 in0.0 mm
07:30 PM 41.2°F5.1°C 30.3°F-0.9°C 65% 1.2 mph NW1.9 kmh NW 1.2 mph1.9 kmh 29.82 in1009.8 mb - 0.00 in0.0 mm 0.00 in0.0 mm
07:35 PM 41.2°F5.1°C 30.7°F-0.7°C 66% 1.2 mph NNW1.9 kmh NNW 2.3 mph3.7 kmh 29.82 in1009.8 mb - 0.00 in0.0 mm 0.00 in0.0 mm
07:40 PM 41.0°F5.0°C 30.5°F-0.8°C 66% 2.3 mph 3.7 kmh 2.3 mph3.7 kmh 29.86 in1011.2 mb - 0.00 in0.0 mm 0.00 in0.0 mm
07:45 PM 41.0°F5.0°C 30.5°F-0.8°C 66% 2.3 mph N3.7 kmh N 2.3 mph3.7 kmh 29.86 in1011.2 mb - 0.00 in0.0 mm 0.00 in0.0 mm
07:50 PM 40.8°F4.9°C 30.7°F-0.7°C 67% Calm Calm -- 29.86 in1011.2 mb - 0.00 in0.0 mm 0.00 in0.0 mm
07:55 PM 41.0°F5.0°C 30.9°F-0.6°C 67% 2.3 mph NW3.7 kmh NW 2.3 mph3.7 kmh 29.82 in1009.8 mb - 0.00 in0.0 mm 0.00 in0.0 mm
08:00 PM 41.2°F5.1°C 31.0°F-0.6°C 67% 1.2 mph WNW1.9 kmh WNW 2.3 mph3.7 kmh 29.82 in1009.8 mb - 0.00 in0.0 mm 0.00 in0.0 mm
08:10 PM 40.8°F4.9°C 31.0°F-0.6°C 68% Calm Calm -- 29.86 in1011.2 mb - 0.00 in0.0 mm 0.00 in0.0 mm
08:15 PM 40.4°F4.7°C 30.7°F-0.7°C 68% Calm Calm -- 29.86 in1011.2 mb - 0.00 in0.0 mm 0.00 in0.0 mm
08:20 PM 40.1°F4.5°C 30.4°F-0.9°C 68% Calm Calm 1.2 mph1.9 kmh 29.86 in1011.2 mb - 0.00 in0.0 mm 0.00 in0.0 mm
08:25 PM 40.1°F4.5°C 30.4°F-0.9°C 68% 1.2 mph SW1.9 kmh SW 2.3 mph3.7 kmh 29.86 in1011.2 mb - 0.00 in0.0 mm 0.00 in0.0 mm
08:30 PM 40.3°F4.6°C 30.9°F-0.6°C 69% 1.2 mph SW1.9 kmh SW 2.3 mph3.7 kmh 29.86 in1011.2 mb - 0.00 in0.0 mm 0.00 in0.0 mm
08:35 PM 40.2°F4.6°C 30.8°F-0.7°C 69% 1.2 mph SW1.9 kmh SW 1.2 mph1.9 kmh 29.86 in1011.2 mb - 0.00 in0.0 mm 0.00 in0.0 mm
08:40 PM 40.3°F4.6°C 30.9°F-0.6°C 69% 2.3 mph W3.7 kmh W 2.3 mph3.7 kmh 29.86 in1011.2 mb - 0.00 in0.0 mm 0.00 in0.0 mm
08:45 PM 40.1°F4.5°C 30.7°F-0.7°C 69% 2.3 mph W3.7 kmh W 2.3 mph3.7 kmh 29.86 in1011.2 mb - 0.00 in0.0 mm 0.00 in0.0 mm
08:50 PM 40.0°F4.4°C 31.0°F-0.6°C 70% 2.3 mph WNW3.7 kmh WNW 2.3 mph3.7 kmh 29.86 in1011.2 mb - 0.00 in0.0 mm 0.00 in0.0 mm
08:55 PM 39.9°F4.4°C 30.9°F-0.6°C 70% 2.3 mph W3.7 kmh W 3.5 mph5.6 kmh 29.88 in1011.9 mb - 0.00 in0.0 mm 0.00 in0.0 mm
09:00 PM 40.1°F4.5°C 31.1°F-0.5°C 70% 2.3 mph W3.7 kmh W 3.5 mph5.6 kmh 29.88 in1011.9 mb - 0.00 in0.0 mm 0.00 in0.0 mm
09:10 PM 40.1°F4.5°C 31.1°F-0.5°C 70% 2.3 mph WNW3.7 kmh WNW 2.3 mph3.7 kmh 29.88 in1011.9 mb - 0.00 in0.0 mm 0.00 in0.0 mm
09:15 PM 39.9°F4.4°C 30.9°F-0.6°C 70% 2.3 mph W3.7 kmh W 2.3 mph3.7 kmh 29.88 in1011.9 mb - 0.00 in0.0 mm 0.00 in0.0 mm
09:20 PM 39.7°F4.3°C 31.1°F-0.5°C 71% 2.3 mph W3.7 kmh W 3.5 mph5.6 kmh 29.88 in1011.9 mb - 0.00 in0.0 mm 0.00 in0.0 mm
09:25 PM 39.7°F4.3°C 31.1°F-0.5°C 71% 2.3 mph W3.7 kmh W 3.5 mph5.6 kmh 29.88 in1011.9 mb - 0.00 in0.0 mm 0.00 in0.0 mm
09:30 PM 39.7°F4.3°C 31.1°F-0.5°C 71% 2.3 mph W3.7 kmh W 3.5 mph5.6 kmh 29.88 in1011.9 mb - 0.00 in0.0 mm 0.00 in0.0 mm
09:35 PM 39.7°F4.3°C 31.1°F-0.5°C 71% 2.3 mph W3.7 kmh W 3.5 mph5.6 kmh 29.88 in1011.9 mb - 0.00 in0.0 mm 0.00 in0.0 mm
09:40 PM 39.7°F4.3°C 31.1°F-0.5°C 71% 2.3 mph W3.7 kmh W 2.3 mph3.7 kmh 29.88 in1011.9 mb - 0.00 in0.0 mm 0.00 in0.0 mm
09:45 PM 39.7°F4.3°C 31.1°F-0.5°C 71% 3.5 mph W5.6 kmh W 4.6 mph7.4 kmh 29.88 in1011.9 mb - 0.00 in0.0 mm 0.00 in0.0 mm
09:50 PM 40.1°F4.5°C 31.8°F-0.1°C 72% 3.5 mph W5.6 kmh W 3.5 mph5.6 kmh 29.88 in1011.9 mb - 0.00 in0.0 mm 0.00 in0.0 mm
09:55 PM 40.5°F4.7°C 32.5°F0.3°C 73% 3.5 mph W5.6 kmh W 3.5 mph5.6 kmh 29.88 in1011.9 mb - 0.00 in0.0 mm 0.00 in0.0 mm
10:00 PM 40.3°F4.6°C 32.3°F0.2°C 73% 3.5 mph W5.6 kmh W 3.5 mph5.6 kmh 29.88 in1011.9 mb - 0.00 in0.0 mm 0.00 in0.0 mm
10:10 PM 40.1°F4.5°C 32.1°F0.1°C 73% 3.5 mph W5.6 kmh W 3.5 mph5.6 kmh 29.91 in1012.9 mb - 0.00 in0.0 mm 0.00 in0.0 mm
10:15 PM 40.3°F4.6°C 32.3°F0.2°C 73% 4.6 mph W7.4 kmh W 4.6 mph7.4 kmh 29.91 in1012.9 mb - 0.00 in0.0 mm 0.00 in0.0 mm
10:20 PM 40.6°F4.8°C 32.9°F0.5°C 74% 3.5 mph W5.6 kmh W 4.6 mph7.4 kmh 29.91 in1012.9 mb - 0.00 in0.0 mm 0.00 in0.0 mm
10:25 PM 40.6°F4.8°C 33.0°F0.6°C 74% 3.5 mph W5.6 kmh W 3.5 mph5.6 kmh 29.91 in1012.9 mb - 0.00 in0.0 mm 0.00 in0.0 mm
10:30 PM 40.6°F4.8°C 33.0°F0.6°C 74% 3.5 mph WSW5.6 kmh WSW 3.5 mph5.6 kmh 29.91 in1012.9 mb - 0.00 in0.0 mm 0.00 in0.0 mm
10:35 PM 40.5°F4.7°C 32.8°F0.4°C 74% 3.5 mph W5.6 kmh W 3.5 mph5.6 kmh 29.91 in1012.9 mb - 0.00 in0.0 mm 0.00 in0.0 mm
10:40 PM 40.5°F4.7°C 32.8°F0.4°C 74% 3.5 mph W5.6 kmh W 3.5 mph5.6 kmh 29.91 in1012.9 mb - 0.00 in0.0 mm 0.00 in0.0 mm
10:45 PM 40.5°F4.7°C 32.8°F0.4°C 74% 3.5 mph W5.6 kmh W 4.6 mph7.4 kmh 29.91 in1012.9 mb - 0.00 in0.0 mm 0.00 in0.0 mm
10:50 PM 40.6°F4.8°C 33.3°F0.7°C 75% 2.3 mph W3.7 kmh W 2.3 mph3.7 kmh 29.91 in1012.9 mb - 0.00 in0.0 mm 0.00 in0.0 mm
10:55 PM 40.6°F4.8°C 33.3°F0.7°C 75% 2.3 mph W3.7 kmh W 2.3 mph3.7 kmh 29.91 in1012.9 mb - 0.00 in0.0 mm 0.00 in0.0 mm
11:00 PM 40.3°F4.6°C 33.0°F0.6°C 75% 1.2 mph SW1.9 kmh SW 1.2 mph1.9 kmh 29.91 in1012.9 mb - 0.00 in0.0 mm 0.00 in0.0 mm
11:10 PM 39.7°F4.3°C 32.1°F0.1°C 74% 2.3 mph NW3.7 kmh NW 2.3 mph3.7 kmh 29.91 in1012.9 mb - 0.00 in0.0 mm 0.00 in0.0 mm
11:15 PM 39.6°F4.2°C 32.0°F0.0°C 74% Calm Calm 1.2 mph1.9 kmh 29.91 in1012.9 mb - 0.00 in0.0 mm 0.00 in0.0 mm
11:20 PM 39.4°F4.1°C 31.8°F-0.1°C 74% 1.2 mph WNW1.9 kmh WNW 2.3 mph3.7 kmh 29.91 in1012.9 mb - 0.00 in0.0 mm 0.00 in0.0 mm
11:25 PM 39.2°F4.0°C 31.6°F-0.2°C 74% 3.5 mph WNW5.6 kmh WNW 3.5 mph5.6 kmh 29.91 in1012.9 mb - 0.00 in0.0 mm 0.00 in0.0 mm
11:30 PM 39.2°F4.0°C 31.9°F-0.1°C 75% 3.5 mph WNW5.6 kmh WNW 3.5 mph5.6 kmh 29.91 in1012.9 mb - 0.00 in0.0 mm 0.00 in0.0 mm
11:35 PM 39.2°F4.0°C 31.9°F-0.1°C 75% 3.5 mph W5.6 kmh W 3.5 mph5.6 kmh 29.91 in1012.9 mb - 0.00 in0.0 mm 0.00 in0.0 mm
11:40 PM 39.4°F4.1°C 32.1°F0.1°C 75% 4.6 mph WNW7.4 kmh WNW 4.6 mph7.4 kmh 29.91 in1012.9 mb - 0.00 in0.0 mm 0.00 in0.0 mm
11:45 PM 39.4°F4.1°C 32.1°F0.1°C 75% 3.5 mph W5.6 kmh W 3.5 mph5.6 kmh 29.91 in1012.9 mb - 0.00 in0.0 mm 0.00 in0.0 mm
11:50 PM 39.5°F4.2°C 32.5°F0.3°C 76% 2.3 mph W3.7 kmh W 3.5 mph5.6 kmh 29.91 in1012.9 mb - 0.00 in0.0 mm 0.00 in0.0 mm
11:55 PM 39.6°F4.2°C 32.6°F0.3°C 76% 3.5 mph W5.6 kmh W 3.5 mph5.6 kmh 29.91 in1012.9 mb - 0.00 in0.0 mm 0.00 in0.0 mm